sensor_id;sensor_type;location;lat;lon;timestamp;temperature;humidity
33414;DHT22;60055;41.884;12.534;2023-01-31T00:01:31;6.20;99.90
33414;DHT22;60055;41.884;12.534;2023-01-31T00:04:00;6.10;99.90
33414;DHT22;60055;41.884;12.534;2023-01-31T00:06:28;6.00;99.90
33414;DHT22;60055;41.884;12.534;2023-01-31T00:08:55;6.10;99.90
33414;DHT22;60055;41.884;12.534;2023-01-31T00:11:23;6.10;99.90
33414;DHT22;60055;41.884;12.534;2023-01-31T00:13:49;6.00;99.90
33414;DHT22;60055;41.884;12.534;2023-01-31T00:16:16;5.90;99.90
33414;DHT22;60055;41.884;12.534;2023-01-31T00:18:44;5.80;99.90
33414;DHT22;60055;41.884;12.534;2023-01-31T00:21:14;5.80;99.90
33414;DHT22;60055;41.884;12.534;2023-01-31T00:23:42;5.90;99.90
33414;DHT22;60055;41.884;12.534;2023-01-31T00:26:16;5.90;99.90
33414;DHT22;60055;41.884;12.534;2023-01-31T00:28:43;5.90;99.90
33414;DHT22;60055;41.884;12.534;2023-01-31T00:31:12;5.90;99.90
33414;DHT22;60055;41.884;12.534;2023-01-31T00:33:42;5.80;99.90
33414;DHT22;60055;41.884;12.534;2023-01-31T00:36:17;5.80;99.90
33414;DHT22;60055;41.884;12.534;2023-01-31T00:38:51;5.70;99.90
33414;DHT22;60055;41.884;12.534;2023-01-31T00:41:20;5.90;99.90
33414;DHT22;60055;41.884;12.534;2023-01-31T00:43:46;5.90;99.90
33414;DHT22;60055;41.884;12.534;2023-01-31T00:46:13;6.00;99.90
33414;DHT22;60055;41.884;12.534;2023-01-31T00:48:39;6.00;99.90
33414;DHT22;60055;41.884;12.534;2023-01-31T00:51:04;5.90;99.90
33414;DHT22;60055;41.884;12.534;2023-01-31T00:53:30;5.90;99.90
33414;DHT22;60055;41.884;12.534;2023-01-31T00:56:02;5.90;99.90
33414;DHT22;60055;41.884;12.534;2023-01-31T00:58:28;5.90;99.90
33414;DHT22;60055;41.884;12.534;2023-01-31T01:00:54;5.90;99.90
33414;DHT22;60055;41.884;12.534;2023-01-31T01:03:19;6.00;99.90
33414;DHT22;60055;41.884;12.534;2023-01-31T01:05:45;6.00;99.90
33414;DHT22;60055;41.884;12.534;2023-01-31T01:08:11;6.00;99.90
33414;DHT22;60055;41.884;12.534;2023-01-31T01:10:37;6.00;99.90
33414;DHT22;60055;41.884;12.534;2023-01-31T01:13:03;5.90;99.90
33414;DHT22;60055;41.884;12.534;2023-01-31T01:15:30;5.90;99.90
33414;DHT22;60055;41.884;12.534;2023-01-31T01:17:56;5.90;99.90
33414;DHT22;60055;41.884;12.534;2023-01-31T01:20:22;5.80;99.90
33414;DHT22;60055;41.884;12.534;2023-01-31T01:22:47;5.80;99.90
33414;DHT22;60055;41.884;12.534;2023-01-31T01:25:14;5.80;99.90
33414;DHT22;60055;41.884;12.534;2023-01-31T01:27:40;5.90;99.90
33414;DHT22;60055;41.884;12.534;2023-01-31T01:30:06;5.70;99.90
33414;DHT22;60055;41.884;12.534;2023-01-31T01:32:32;5.60;99.90
33414;DHT22;60055;41.884;12.534;2023-01-31T01:34:57;5.50;99.90
33414;DHT22;60055;41.884;12.534;2023-01-31T01:37:23;5.50;99.90
33414;DHT22;60055;41.884;12.534;2023-01-31T01:39:49;5.50;99.90
33414;DHT22;60055;41.884;12.534;2023-01-31T01:42:21;5.50;99.90
33414;DHT22;60055;41.884;12.534;2023-01-31T01:44:56;5.50;99.90
33414;DHT22;60055;41.884;12.534;2023-01-31T01:47:32;5.50;99.90
33414;DHT22;60055;41.884;12.534;2023-01-31T01:50:12;5.60;99.90
33414;DHT22;60055;41.884;12.534;2023-01-31T02:01:08;5.50;99.90
33414;DHT22;60055;41.884;12.534;2023-01-31T02:03:35;5.60;99.90
33414;DHT22;60055;41.884;12.534;2023-01-31T02:06:03;5.70;99.90
33414;DHT22;60055;41.884;12.534;2023-01-31T02:08:35;5.60;99.90
33414;DHT22;60055;41.884;12.534;2023-01-31T02:11:21;5.60;99.90
33414;DHT22;60055;41.884;12.534;2023-01-31T02:13:50;5.50;99.90
33414;DHT22;60055;41.884;12.534;2023-01-31T02:16:17;5.40;99.90
33414;DHT22;60055;41.884;12.534;2023-01-31T02:18:44;5.40;99.90
33414;DHT22;60055;41.884;12.534;2023-01-31T02:32:52;5.60;99.90
33414;DHT22;60055;41.884;12.534;2023-01-31T02:35:55;5.40;99.90
33414;DHT22;60055;41.884;12.534;2023-01-31T02:43:58;5.50;99.90
33414;DHT22;60055;41.884;12.534;2023-01-31T02:49:22;5.10;99.90
33414;DHT22;60055;41.884;12.534;2023-01-31T02:57:53;5.30;99.90
33414;DHT22;60055;41.884;12.534;2023-01-31T03:00:21;5.20;99.90
33414;DHT22;60055;41.884;12.534;2023-01-31T03:02:47;5.40;99.90
33414;DHT22;60055;41.884;12.534;2023-01-31T03:05:14;5.40;99.90
33414;DHT22;60055;41.884;12.534;2023-01-31T03:07:41;5.30;99.90
33414;DHT22;60055;41.884;12.534;2023-01-31T03:15:44;5.30;99.90
33414;DHT22;60055;41.884;12.534;2023-01-31T03:19:04;5.30;99.90
33414;DHT22;60055;41.884;12.534;2023-01-31T03:21:51;5.30;99.90
33414;DHT22;60055;41.884;12.534;2023-01-31T03:24:20;5.30;99.90
33414;DHT22;60055;41.884;12.534;2023-01-31T03:26:54;5.20;99.90
33414;DHT22;60055;41.884;12.534;2023-01-31T03:29:22;5.20;99.90
33414;DHT22;60055;41.884;12.534;2023-01-31T03:32:03;5.10;99.90
33414;DHT22;60055;41.884;12.534;2023-01-31T03:34:31;5.20;99.90
33414;DHT22;60055;41.884;12.534;2023-01-31T03:37:19;5.20;99.90
33414;DHT22;60055;41.884;12.534;2023-01-31T03:39:59;5.10;99.90
33414;DHT22;60055;41.884;12.534;2023-01-31T03:42:37;5.00;99.90
33414;DHT22;60055;41.884;12.534;2023-01-31T03:45:10;5.00;99.90
33414;DHT22;60055;41.884;12.534;2023-01-31T03:47:44;4.90;99.90
33414;DHT22;60055;41.884;12.534;2023-01-31T03:50:18;5.00;99.90
33414;DHT22;60055;41.884;12.534;2023-01-31T03:52:51;4.90;99.90
33414;DHT22;60055;41.884;12.534;2023-01-31T03:55:23;5.00;99.90
33414;DHT22;60055;41.884;12.534;2023-01-31T03:57:51;5.20;99.90
33414;DHT22;60055;41.884;12.534;2023-01-31T04:00:20;4.80;99.90
33414;DHT22;60055;41.884;12.534;2023-01-31T04:02:51;4.70;99.90
33414;DHT22;60055;41.884;12.534;2023-01-31T04:05:21;4.70;99.90
33414;DHT22;60055;41.884;12.534;2023-01-31T04:07:48;5.00;99.90
33414;DHT22;60055;41.884;12.534;2023-01-31T04:10:17;5.10;99.90
33414;DHT22;60055;41.884;12.534;2023-01-31T04:12:45;5.00;99.90
33414;DHT22;60055;41.884;12.534;2023-01-31T04:15:11;5.00;99.90
33414;DHT22;60055;41.884;12.534;2023-01-31T04:17:37;5.00;99.90
33414;DHT22;60055;41.884;12.534;2023-01-31T04:20:04;5.10;99.90
33414;DHT22;60055;41.884;12.534;2023-01-31T04:22:30;5.20;99.90
33414;DHT22;60055;41.884;12.534;2023-01-31T04:24:56;5.30;99.90
33414;DHT22;60055;41.884;12.534;2023-01-31T04:27:22;5.00;99.90
33414;DHT22;60055;41.884;12.534;2023-01-31T04:29:48;5.00;99.90
33414;DHT22;60055;41.884;12.534;2023-01-31T04:32:14;4.90;99.90
33414;DHT22;60055;41.884;12.534;2023-01-31T04:34:39;5.10;99.90
33414;DHT22;60055;41.884;12.534;2023-01-31T04:37:05;5.30;99.90
33414;DHT22;60055;41.884;12.534;2023-01-31T04:39:30;5.50;99.90
33414;DHT22;60055;41.884;12.534;2023-01-31T04:41:56;5.70;99.90
33414;DHT22;60055;41.884;12.534;2023-01-31T04:44:22;5.90;99.90
33414;DHT22;60055;41.884;12.534;2023-01-31T04:46:47;5.70;99.90
33414;DHT22;60055;41.884;12.534;2023-01-31T04:49:15;5.60;99.90
33414;DHT22;60055;41.884;12.534;2023-01-31T04:51:41;5.40;99.90
33414;DHT22;60055;41.884;12.534;2023-01-31T04:54:07;5.30;99.90
33414;DHT22;60055;41.884;12.534;2023-01-31T04:56:33;5.30;99.90
33414;DHT22;60055;41.884;12.534;2023-01-31T04:58:58;5.30;99.90
33414;DHT22;60055;41.884;12.534;2023-01-31T05:01:24;5.30;99.90
33414;DHT22;60055;41.884;12.534;2023-01-31T05:03:53;5.30;99.90
33414;DHT22;60055;41.884;12.534;2023-01-31T05:06:19;5.30;99.90
33414;DHT22;60055;41.884;12.534;2023-01-31T05:08:47;5.30;99.90
33414;DHT22;60055;41.884;12.534;2023-01-31T05:11:14;5.30;99.90
33414;DHT22;60055;41.884;12.534;2023-01-31T05:13:39;5.30;99.90
33414;DHT22;60055;41.884;12.534;2023-01-31T05:16:08;5.40;99.90
33414;DHT22;60055;41.884;12.534;2023-01-31T05:18:34;5.50;99.90
33414;DHT22;60055;41.884;12.534;2023-01-31T05:21:01;5.50;99.90
33414;DHT22;60055;41.884;12.534;2023-01-31T05:23:28;5.30;99.90
33414;DHT22;60055;41.884;12.534;2023-01-31T05:25:53;5.30;99.90
33414;DHT22;60055;41.884;12.534;2023-01-31T05:28:22;5.30;99.90
33414;DHT22;60055;41.884;12.534;2023-01-31T05:30:50;5.30;99.90
33414;DHT22;60055;41.884;12.534;2023-01-31T05:33:15;5.30;99.90
33414;DHT22;60055;41.884;12.534;2023-01-31T05:35:41;5.30;99.90
33414;DHT22;60055;41.884;12.534;2023-01-31T05:38:08;5.20;99.90
33414;DHT22;60055;41.884;12.534;2023-01-31T05:40:34;5.10;99.90
33414;DHT22;60055;41.884;12.534;2023-01-31T05:42:59;5.10;99.90
33414;DHT22;60055;41.884;12.534;2023-01-31T05:45:26;5.10;99.90
33414;DHT22;60055;41.884;12.534;2023-01-31T05:47:51;5.10;99.90
33414;DHT22;60055;41.884;12.534;2023-01-31T05:50:17;5.10;99.90
33414;DHT22;60055;41.884;12.534;2023-01-31T05:52:48;5.20;99.90
33414;DHT22;60055;41.884;12.534;2023-01-31T05:55:14;5.20;99.90
33414;DHT22;60055;41.884;12.534;2023-01-31T05:57:40;5.00;99.90
33414;DHT22;60055;41.884;12.534;2023-01-31T06:00:06;5.20;99.90
33414;DHT22;60055;41.884;12.534;2023-01-31T06:02:32;5.20;99.90
33414;DHT22;60055;41.884;12.534;2023-01-31T06:04:57;5.30;99.90
33414;DHT22;60055;41.884;12.534;2023-01-31T06:07:23;5.00;99.90
33414;DHT22;60055;41.884;12.534;2023-01-31T06:09:55;5.00;99.90
33414;DHT22;60055;41.884;12.534;2023-01-31T06:12:21;4.90;99.90
33414;DHT22;60055;41.884;12.534;2023-01-31T06:14:47;5.00;99.90
33414;DHT22;60055;41.884;12.534;2023-01-31T06:17:13;5.00;99.90
33414;DHT22;60055;41.884;12.534;2023-01-31T06:19:39;4.90;99.90
33414;DHT22;60055;41.884;12.534;2023-01-31T06:22:08;5.00;99.90
33414;DHT22;60055;41.884;12.534;2023-01-31T06:24:33;5.00;99.90
33414;DHT22;60055;41.884;12.534;2023-01-31T06:26:59;5.10;99.90
33414;DHT22;60055;41.884;12.534;2023-01-31T06:29:25;5.20;99.90
33414;DHT22;60055;41.884;12.534;2023-01-31T06:31:50;5.30;99.90
33414;DHT22;60055;41.884;12.534;2023-01-31T06:34:19;5.50;99.90
33414;DHT22;60055;41.884;12.534;2023-01-31T06:36:45;5.60;99.90
33414;DHT22;60055;41.884;12.534;2023-01-31T06:39:12;5.40;99.90
33414;DHT22;60055;41.884;12.534;2023-01-31T06:41:37;5.30;99.90
33414;DHT22;60055;41.884;12.534;2023-01-31T06:44:06;5.10;99.90
33414;DHT22;60055;41.884;12.534;2023-01-31T06:46:32;5.10;99.90
33414;DHT22;60055;41.884;12.534;2023-01-31T06:48:58;5.40;99.90
33414;DHT22;60055;41.884;12.534;2023-01-31T06:51:24;5.20;99.90
33414;DHT22;60055;41.884;12.534;2023-01-31T06:53:50;5.20;99.90
33414;DHT22;60055;41.884;12.534;2023-01-31T06:56:17;5.20;99.90
33414;DHT22;60055;41.884;12.534;2023-01-31T06:58:43;5.10;99.90
33414;DHT22;60055;41.884;12.534;2023-01-31T07:01:10;5.10;99.90
33414;DHT22;60055;41.884;12.534;2023-01-31T07:03:38;5.10;99.90
33414;DHT22;60055;41.884;12.534;2023-01-31T07:06:05;5.00;99.90
33414;DHT22;60055;41.884;12.534;2023-01-31T07:08:31;5.10;99.90
33414;DHT22;60055;41.884;12.534;2023-01-31T07:10:57;5.10;99.90
33414;DHT22;60055;41.884;12.534;2023-01-31T07:13:26;5.10;99.90
33414;DHT22;60055;41.884;12.534;2023-01-31T07:15:53;5.20;99.90
33414;DHT22;60055;41.884;12.534;2023-01-31T07:18:18;5.30;99.90
33414;DHT22;60055;41.884;12.534;2023-01-31T07:20:45;5.40;99.90
33414;DHT22;60055;41.884;12.534;2023-01-31T07:23:11;5.30;99.90
33414;DHT22;60055;41.884;12.534;2023-01-31T07:25:36;5.30;99.90
33414;DHT22;60055;41.884;12.534;2023-01-31T07:28:02;5.40;99.90
33414;DHT22;60055;41.884;12.534;2023-01-31T07:30:28;5.50;99.90
33414;DHT22;60055;41.884;12.534;2023-01-31T07:32:54;5.60;99.90
33414;DHT22;60055;41.884;12.534;2023-01-31T07:35:20;5.70;99.90
33414;DHT22;60055;41.884;12.534;2023-01-31T07:37:46;5.90;99.90
33414;DHT22;60055;41.884;12.534;2023-01-31T07:40:14;6.70;99.90
33414;DHT22;60055;41.884;12.534;2023-01-31T07:42:40;7.00;99.90
33414;DHT22;60055;41.884;12.534;2023-01-31T07:45:07;6.90;99.90
33414;DHT22;60055;41.884;12.534;2023-01-31T07:47:33;7.80;99.90
33414;DHT22;60055;41.884;12.534;2023-01-31T07:49:59;7.90;99.90
33414;DHT22;60055;41.884;12.534;2023-01-31T07:52:24;8.00;99.90
33414;DHT22;60055;41.884;12.534;2023-01-31T07:54:50;8.30;99.90
33414;DHT22;60055;41.884;12.534;2023-01-31T07:57:16;7.90;99.90
33414;DHT22;60055;41.884;12.534;2023-01-31T07:59:45;7.90;99.90
33414;DHT22;60055;41.884;12.534;2023-01-31T08:02:15;7.90;99.90
33414;DHT22;60055;41.884;12.534;2023-01-31T08:05:13;8.30;99.90
33414;DHT22;60055;41.884;12.534;2023-01-31T08:07:39;8.60;99.90
33414;DHT22;60055;41.884;12.534;2023-01-31T08:10:05;8.50;99.90
33414;DHT22;60055;41.884;12.534;2023-01-31T08:12:30;8.30;99.90
33414;DHT22;60055;41.884;12.534;2023-01-31T08:14:56;8.50;99.90
33414;DHT22;60055;41.884;12.534;2023-01-31T08:17:22;8.50;99.90
33414;DHT22;60055;41.884;12.534;2023-01-31T08:19:47;8.70;99.90
33414;DHT22;60055;41.884;12.534;2023-01-31T08:22:15;8.60;99.90
33414;DHT22;60055;41.884;12.534;2023-01-31T08:24:41;8.80;99.90
33414;DHT22;60055;41.884;12.534;2023-01-31T08:27:10;9.00;99.90
33414;DHT22;60055;41.884;12.534;2023-01-31T08:29:36;9.30;99.90
33414;DHT22;60055;41.884;12.534;2023-01-31T08:32:01;9.30;99.90
33414;DHT22;60055;41.884;12.534;2023-01-31T08:34:27;9.60;99.90
33414;DHT22;60055;41.884;12.534;2023-01-31T08:36:53;9.60;99.90
33414;DHT22;60055;41.884;12.534;2023-01-31T08:39:18;9.70;99.90
33414;DHT22;60055;41.884;12.534;2023-01-31T08:41:44;9.70;99.90
33414;DHT22;60055;41.884;12.534;2023-01-31T08:44:12;10.40;99.90
33414;DHT22;60055;41.884;12.534;2023-01-31T08:46:37;10.10;99.90
33414;DHT22;60055;41.884;12.534;2023-01-31T08:49:05;10.20;99.90
33414;DHT22;60055;41.884;12.534;2023-01-31T08:51:31;10.30;99.90
33414;DHT22;60055;41.884;12.534;2023-01-31T08:53:57;10.40;99.90
33414;DHT22;60055;41.884;12.534;2023-01-31T08:56:22;10.60;99.90
33414;DHT22;60055;41.884;12.534;2023-01-31T08:58:51;10.30;99.90
33414;DHT22;60055;41.884;12.534;2023-01-31T09:01:19;10.20;99.90
33414;DHT22;60055;41.884;12.534;2023-01-31T09:03:46;10.40;99.90
33414;DHT22;60055;41.884;12.534;2023-01-31T09:06:18;10.30;99.90
33414;DHT22;60055;41.884;12.534;2023-01-31T09:08:46;10.60;99.90
33414;DHT22;60055;41.884;12.534;2023-01-31T09:11:12;10.80;99.90
33414;DHT22;60055;41.884;12.534;2023-01-31T09:13:43;11.00;99.90
33414;DHT22;60055;41.884;12.534;2023-01-31T09:16:11;10.60;99.90
33414;DHT22;60055;41.884;12.534;2023-01-31T09:18:39;10.40;99.90
33414;DHT22;60055;41.884;12.534;2023-01-31T09:21:31;10.70;99.90
33414;DHT22;60055;41.884;12.534;2023-01-31T09:23:58;10.80;99.90
33414;DHT22;60055;41.884;12.534;2023-01-31T09:26:27;10.90;99.90
33414;DHT22;60055;41.884;12.534;2023-01-31T09:28:53;10.90;99.90
33414;DHT22;60055;41.884;12.534;2023-01-31T09:31:20;11.10;99.90
33414;DHT22;60055;41.884;12.534;2023-01-31T09:33:46;11.00;99.90
33414;DHT22;60055;41.884;12.534;2023-01-31T09:36:14;10.80;99.90
33414;DHT22;60055;41.884;12.534;2023-01-31T09:38:40;11.00;99.90
33414;DHT22;60055;41.884;12.534;2023-01-31T09:41:18;11.10;99.90
33414;DHT22;60055;41.884;12.534;2023-01-31T09:44:16;11.20;99.90
33414;DHT22;60055;41.884;12.534;2023-01-31T09:46:50;11.00;99.90
33414;DHT22;60055;41.884;12.534;2023-01-31T09:49:27;11.10;99.90
33414;DHT22;60055;41.884;12.534;2023-01-31T09:51:59;11.00;99.90
33414;DHT22;60055;41.884;12.534;2023-01-31T09:54:32;10.70;99.90
33414;DHT22;60055;41.884;12.534;2023-01-31T09:57:09;11.40;99.90
33414;DHT22;60055;41.884;12.534;2023-01-31T10:02:42;11.50;99.90
33414;DHT22;60055;41.884;12.534;2023-01-31T10:08:47;11.80;99.90
33414;DHT22;60055;41.884;12.534;2023-01-31T10:11:28;11.70;99.90
33414;DHT22;60055;41.884;12.534;2023-01-31T10:19:22;11.60;99.90
33414;DHT22;60055;41.884;12.534;2023-01-31T10:21:54;11.40;99.90
33414;DHT22;60055;41.884;12.534;2023-01-31T10:24:46;11.60;99.90
33414;DHT22;60055;41.884;12.534;2023-01-31T10:29:53;11.90;99.90
33414;DHT22;60055;41.884;12.534;2023-01-31T10:32:28;12.20;99.90
33414;DHT22;60055;41.884;12.534;2023-01-31T10:35:03;12.20;99.90
33414;DHT22;60055;41.884;12.534;2023-01-31T10:37:36;12.40;99.90
33414;DHT22;60055;41.884;12.534;2023-01-31T10:40:17;12.50;99.90
33414;DHT22;60055;41.884;12.534;2023-01-31T10:42:54;12.30;99.90
33414;DHT22;60055;41.884;12.534;2023-01-31T10:45:25;12.80;99.90
33414;DHT22;60055;41.884;12.534;2023-01-31T10:48:16;12.90;99.90
33414;DHT22;60055;41.884;12.534;2023-01-31T10:56:35;12.80;99.90
33414;DHT22;60055;41.884;12.534;2023-01-31T10:59:24;12.60;99.90
33414;DHT22;60055;41.884;12.534;2023-01-31T11:01:50;12.70;99.90
33414;DHT22;60055;41.884;12.534;2023-01-31T11:06:57;12.50;99.90
33414;DHT22;60055;41.884;12.534;2023-01-31T11:09:23;12.80;99.90
33414;DHT22;60055;41.884;12.534;2023-01-31T11:12:08;12.70;99.90
33414;DHT22;60055;41.884;12.534;2023-01-31T11:14:34;12.60;99.90
33414;DHT22;60055;41.884;12.534;2023-01-31T11:17:17;12.70;99.90
33414;DHT22;60055;41.884;12.534;2023-01-31T11:19:55;12.60;99.90
33414;DHT22;60055;41.884;12.534;2023-01-31T11:22:25;12.40;99.90
33414;DHT22;60055;41.884;12.534;2023-01-31T11:24:52;12.90;99.90
33414;DHT22;60055;41.884;12.534;2023-01-31T11:27:42;13.40;99.90
33414;DHT22;60055;41.884;12.534;2023-01-31T11:30:32;13.50;99.90
33414;DHT22;60055;41.884;12.534;2023-01-31T11:32:59;13.30;99.90
33414;DHT22;60055;41.884;12.534;2023-01-31T11:35:30;13.50;99.90
33414;DHT22;60055;41.884;12.534;2023-01-31T11:40:33;12.90;99.90
33414;DHT22;60055;41.884;12.534;2023-01-31T11:43:19;12.80;99.90
33414;DHT22;60055;41.884;12.534;2023-01-31T11:45:59;12.60;99.90
33414;DHT22;60055;41.884;12.534;2023-01-31T11:48:41;12.60;99.90
33414;DHT22;60055;41.884;12.534;2023-01-31T11:51:07;12.60;99.90
33414;DHT22;60055;41.884;12.534;2023-01-31T11:53:43;12.70;99.90
33414;DHT22;60055;41.884;12.534;2023-01-31T11:58:39;12.80;99.90
33414;DHT22;60055;41.884;12.534;2023-01-31T12:01:11;12.70;99.90
33414;DHT22;60055;41.884;12.534;2023-01-31T12:03:50;12.70;99.90
33414;DHT22;60055;41.884;12.534;2023-01-31T12:06:38;12.80;99.90
33414;DHT22;60055;41.884;12.534;2023-01-31T12:09:19;12.90;99.90
33414;DHT22;60055;41.884;12.534;2023-01-31T12:11:54;13.00;99.90
33414;DHT22;60055;41.884;12.534;2023-01-31T12:14:20;13.00;99.90
33414;DHT22;60055;41.884;12.534;2023-01-31T12:16:47;13.10;99.90
33414;DHT22;60055;41.884;12.534;2023-01-31T12:25:02;13.20;99.90
33414;DHT22;60055;41.884;12.534;2023-01-31T12:33:08;13.40;99.90
33414;DHT22;60055;41.884;12.534;2023-01-31T12:41:38;13.50;99.90
33414;DHT22;60055;41.884;12.534;2023-01-31T12:44:32;13.50;99.90
33414;DHT22;60055;41.884;12.534;2023-01-31T13:01:08;13.90;73.80
33414;DHT22;60055;41.884;12.534;2023-01-31T13:06:27;13.90;99.90
33414;DHT22;60055;41.884;12.534;2023-01-31T13:09:02;14.10;99.90
33414;DHT22;60055;41.884;12.534;2023-01-31T13:12:06;14.10;99.90
33414;DHT22;60055;41.884;12.534;2023-01-31T13:14:50;14.10;99.90
33414;DHT22;60055;41.884;12.534;2023-01-31T13:17:22;13.80;99.90
33414;DHT22;60055;41.884;12.534;2023-01-31T13:20:13;13.90;99.90
33414;DHT22;60055;41.884;12.534;2023-01-31T13:22:44;14.00;99.90
33414;DHT22;60055;41.884;12.534;2023-01-31T13:25:20;14.10;99.90
33414;DHT22;60055;41.884;12.534;2023-01-31T13:30:51;14.10;99.90
33414;DHT22;60055;41.884;12.534;2023-01-31T13:36:07;13.90;99.90
33414;DHT22;60055;41.884;12.534;2023-01-31T13:38:37;14.00;99.90
33414;DHT22;60055;41.884;12.534;2023-01-31T13:41:05;13.90;99.90
33414;DHT22;60055;41.884;12.534;2023-01-31T13:43:33;13.70;99.90
33414;DHT22;60055;41.884;12.534;2023-01-31T13:46:05;13.70;99.90
33414;DHT22;60055;41.884;12.534;2023-01-31T13:48:33;13.70;99.90
33414;DHT22;60055;41.884;12.534;2023-01-31T13:51:09;13.70;99.90
33414;DHT22;60055;41.884;12.534;2023-01-31T13:53:50;13.80;99.90
33414;DHT22;60055;41.884;12.534;2023-01-31T13:56:24;13.70;99.90
33414;DHT22;60055;41.884;12.534;2023-01-31T13:58:50;13.70;99.90
33414;DHT22;60055;41.884;12.534;2023-01-31T14:01:21;13.60;99.90
33414;DHT22;60055;41.884;12.534;2023-01-31T14:09:31;13.70;99.90
33414;DHT22;60055;41.884;12.534;2023-01-31T14:12:07;13.60;99.90
33414;DHT22;60055;41.884;12.534;2023-01-31T14:14:46;13.60;99.90
33414;DHT22;60055;41.884;12.534;2023-01-31T14:22:30;13.50;99.90
33414;DHT22;60055;41.884;12.534;2023-01-31T14:25:00;13.40;99.90
33414;DHT22;60055;41.884;12.534;2023-01-31T14:27:40;13.30;99.90
33414;DHT22;60055;41.884;12.534;2023-01-31T14:30:08;13.30;56.60
33414;DHT22;60055;41.884;12.534;2023-01-31T14:32:46;13.30;56.60
33414;DHT22;60055;41.884;12.534;2023-01-31T14:40:29;13.20;99.90
33414;DHT22;60055;41.884;12.534;2023-01-31T14:51:50;12.90;99.90
33414;DHT22;60055;41.884;12.534;2023-01-31T14:54:28;12.80;99.90
33414;DHT22;60055;41.884;12.534;2023-01-31T15:02:40;12.60;99.90
33414;DHT22;60055;41.884;12.534;2023-01-31T15:13:48;12.40;99.90
33414;DHT22;60055;41.884;12.534;2023-01-31T15:21:52;12.30;99.90
33414;DHT22;60055;41.884;12.534;2023-01-31T15:24:37;12.30;99.90
33414;DHT22;60055;41.884;12.534;2023-01-31T15:27:07;12.30;99.90
33414;DHT22;60055;41.884;12.534;2023-01-31T15:29:53;12.30;99.90
33414;DHT22;60055;41.884;12.534;2023-01-31T15:32:42;12.20;99.90
33414;DHT22;60055;41.884;12.534;2023-01-31T15:35:19;12.20;99.90
33414;DHT22;60055;41.884;12.534;2023-01-31T15:37:46;12.00;99.90
33414;DHT22;60055;41.884;12.534;2023-01-31T15:40:21;12.10;99.90
33414;DHT22;60055;41.884;12.534;2023-01-31T15:42:48;12.00;99.90
33414;DHT22;60055;41.884;12.534;2023-01-31T15:48:11;12.00;99.90
33414;DHT22;60055;41.884;12.534;2023-01-31T15:50:37;11.90;99.90
33414;DHT22;60055;41.884;12.534;2023-01-31T15:53:16;11.90;99.90
33414;DHT22;60055;41.884;12.534;2023-01-31T15:55:45;11.90;99.90
33414;DHT22;60055;41.884;12.534;2023-01-31T15:58:22;11.80;99.90
33414;DHT22;60055;41.884;12.534;2023-01-31T16:00:51;11.80;99.90
33414;DHT22;60055;41.884;12.534;2023-01-31T16:03:21;11.80;99.90
33414;DHT22;60055;41.884;12.534;2023-01-31T16:05:50;11.70;99.90
33414;DHT22;60055;41.884;12.534;2023-01-31T16:08:34;11.70;99.90
33414;DHT22;60055;41.884;12.534;2023-01-31T16:11:00;11.60;99.90
33414;DHT22;60055;41.884;12.534;2023-01-31T16:13:29;11.60;99.90
33414;DHT22;60055;41.884;12.534;2023-01-31T16:15:56;11.50;99.90
33414;DHT22;60055;41.884;12.534;2023-01-31T16:18:23;11.50;99.90
33414;DHT22;60055;41.884;12.534;2023-01-31T16:20:53;11.50;99.90
33414;DHT22;60055;41.884;12.534;2023-01-31T16:25:58;11.40;99.90
33414;DHT22;60055;41.884;12.534;2023-01-31T16:28:28;11.50;99.90
33414;DHT22;60055;41.884;12.534;2023-01-31T16:31:05;11.50;99.90
33414;DHT22;60055;41.884;12.534;2023-01-31T16:33:33;11.50;99.90
33414;DHT22;60055;41.884;12.534;2023-01-31T16:36:10;11.40;99.90
33414;DHT22;60055;41.884;12.534;2023-01-31T16:38:38;11.30;99.90
33414;DHT22;60055;41.884;12.534;2023-01-31T16:41:05;11.30;99.90
33414;DHT22;60055;41.884;12.534;2023-01-31T16:43:39;11.30;99.90
33414;DHT22;60055;41.884;12.534;2023-01-31T16:48:41;11.20;99.90
33414;DHT22;60055;41.884;12.534;2023-01-31T16:54:22;11.30;99.90
33414;DHT22;60055;41.884;12.534;2023-01-31T16:57:05;11.20;99.90
33414;DHT22;60055;41.884;12.534;2023-01-31T17:04:40;11.10;99.90
33414;DHT22;60055;41.884;12.534;2023-01-31T17:07:15;11.10;99.90
33414;DHT22;60055;41.884;12.534;2023-01-31T17:09:41;11.00;99.90
33414;DHT22;60055;41.884;12.534;2023-01-31T17:12:20;11.00;99.90
33414;DHT22;60055;41.884;12.534;2023-01-31T17:14:47;11.00;99.90
33414;DHT22;60055;41.884;12.534;2023-01-31T17:17:12;11.00;99.90
33414;DHT22;60055;41.884;12.534;2023-01-31T17:19:38;10.90;99.90
33414;DHT22;60055;41.884;12.534;2023-01-31T17:22:04;10.90;99.90
33414;DHT22;60055;41.884;12.534;2023-01-31T17:24:30;10.80;99.90
33414;DHT22;60055;41.884;12.534;2023-01-31T17:26:56;10.80;99.90
33414;DHT22;60055;41.884;12.534;2023-01-31T17:29:22;10.80;99.90
33414;DHT22;60055;41.884;12.534;2023-01-31T17:31:50;10.80;99.90
33414;DHT22;60055;41.884;12.534;2023-01-31T17:34:16;10.80;99.90
33414;DHT22;60055;41.884;12.534;2023-01-31T17:36:42;10.70;99.90
33414;DHT22;60055;41.884;12.534;2023-01-31T17:39:08;10.80;99.90
33414;DHT22;60055;41.884;12.534;2023-01-31T17:41:34;10.70;99.90
33414;DHT22;60055;41.884;12.534;2023-01-31T17:44:01;10.80;99.90
33414;DHT22;60055;41.884;12.534;2023-01-31T17:46:27;10.80;99.90
33414;DHT22;60055;41.884;12.534;2023-01-31T17:48:55;10.70;99.90
33414;DHT22;60055;41.884;12.534;2023-01-31T17:51:21;10.60;99.90
33414;DHT22;60055;41.884;12.534;2023-01-31T17:53:47;10.60;99.90
33414;DHT22;60055;41.884;12.534;2023-01-31T17:56:13;10.60;99.90
33414;DHT22;60055;41.884;12.534;2023-01-31T17:58:39;10.60;99.90
33414;DHT22;60055;41.884;12.534;2023-01-31T18:01:15;10.70;99.90
33414;DHT22;60055;41.884;12.534;2023-01-31T18:03:41;10.70;99.90
33414;DHT22;60055;41.884;12.534;2023-01-31T18:06:08;10.70;99.90
33414;DHT22;60055;41.884;12.534;2023-01-31T18:08:34;10.70;99.90
33414;DHT22;60055;41.884;12.534;2023-01-31T18:11:10;10.70;99.90
33414;DHT22;60055;41.884;12.534;2023-01-31T18:13:36;10.70;99.90
33414;DHT22;60055;41.884;12.534;2023-01-31T18:16:08;10.60;99.90
33414;DHT22;60055;41.884;12.534;2023-01-31T18:18:35;10.70;99.90
33414;DHT22;60055;41.884;12.534;2023-01-31T18:21:01;10.70;99.90
33414;DHT22;60055;41.884;12.534;2023-01-31T18:23:30;10.50;99.90
33414;DHT22;60055;41.884;12.534;2023-01-31T18:25:55;10.50;99.90
33414;DHT22;60055;41.884;12.534;2023-01-31T18:28:21;10.50;99.90
33414;DHT22;60055;41.884;12.534;2023-01-31T18:30:46;10.50;99.90